Terminal Aerodrome Forecast
Issued by NWS

Home | Current Version | Previous Version | Text Only | Print | Product List | Glossary On
Versions: 1 2 3 4 5 6 7 8 9 10 11 12
000
FTUS42 KMLB 202300
TAFSUA
TAF
KSUA 202334Z 2100/2124 15004KT P6SM SCT030 BKN070
     FM210200 19003KT P6SM FEW250
     FM211500 09008KT P6SM FEW040 FEW250
     FM211600 10009KT P6SM FEW035=

USA.gov is the U.S. government's official web portal to all federal, state and local government web resources and services.